createdAt,value
2019-03-28T00:02:43.300Z,6.44
2019-03-28T00:07:48.086Z,6.63
2019-03-28T00:12:52.798Z,6.02
2019-03-28T00:17:57.568Z,6.71
2019-03-28T00:23:09.778Z,6.17
2019-03-28T00:28:15.546Z,6.12
2019-03-28T00:33:20.295Z,5.71
2019-03-28T00:38:25.192Z,6.22
2019-03-28T00:43:29.979Z,5.90
2019-03-28T00:48:34.830Z,5.14
2019-03-28T00:53:39.570Z,5.05
2019-03-28T00:58:44.326Z,5.54
2019-03-28T01:03:49.260Z,5.02
2019-03-28T01:08:54.206Z,5.94
2019-03-28T01:13:59.067Z,5.74
2019-03-28T01:19:03.907Z,6.12
2019-03-28T01:24:08.631Z,6.25
2019-03-28T01:29:13.341Z,5.21
2019-03-28T01:34:18.233Z,5.43
2019-03-28T01:39:22.869Z,5.55
2019-03-28T01:44:27.507Z,5.87
2019-03-28T01:49:33.224Z,5.49
2019-03-28T01:54:37.853Z,5.69
2019-03-28T01:59:42.759Z,5.59
2019-03-28T02:04:47.522Z,5.69
2019-03-28T02:09:52.345Z,5.75
2019-03-28T02:14:57.426Z,5.96
2019-03-28T02:20:02.244Z,5.44
2019-03-28T02:25:08.213Z,5.73
2019-03-28T02:30:12.974Z,5.70
2019-03-28T02:35:17.902Z,5.03
2019-03-28T02:40:22.881Z,5.56
2019-03-28T02:45:27.694Z,5.64
2019-03-28T02:51:00.088Z,4.92
2019-03-28T02:56:05.136Z,5.33
2019-03-28T03:01:09.946Z,4.77
2019-03-28T03:06:14.611Z,5.07
2019-03-28T03:11:19.365Z,5.45
2019-03-28T03:16:24.105Z,5.10
2019-03-28T03:21:28.849Z,5.72
2019-03-28T03:26:33.595Z,5.63
2019-03-28T03:31:38.336Z,5.90
2019-03-28T03:36:42.968Z,5.68
2019-03-28T03:41:47.607Z,4.70
2019-03-28T03:46:52.156Z,4.26
2019-03-28T03:51:56.989Z,4.81
2019-03-28T03:57:01.738Z,4.98
2019-03-28T04:02:06.290Z,5.02
2019-03-28T04:07:10.906Z,5.09
2019-03-28T04:12:15.866Z,5.21
2019-03-28T04:17:21.660Z,4.45
2019-03-28T04:22:27.420Z,4.93
2019-03-28T04:27:32.241Z,4.53
2019-03-28T04:32:37.094Z,4.90
2019-03-28T04:37:41.718Z,4.88
2019-03-28T04:42:46.440Z,4.94
2019-03-28T04:47:51.203Z,4.89
2019-03-28T04:52:55.863Z,5.64
2019-03-28T04:58:00.703Z,5.84
2019-03-28T05:03:05.441Z,6.56
2019-03-28T05:08:10.082Z,8.06
2019-03-28T05:13:14.825Z,9.11
2019-03-28T05:18:19.572Z,9.73
2019-03-28T05:23:24.215Z,10.56
2019-03-28T05:28:28.950Z,10.44
2019-03-28T05:33:33.692Z,10.13
2019-03-28T05:38:39.868Z,8.95
2019-03-28T05:43:45.587Z,9.63
2019-03-28T05:48:50.485Z,8.65
2019-03-28T05:53:55.229Z,8.35
2019-03-28T05:59:10.107Z,8.45
2019-03-28T06:04:06.250Z,8.54
2019-03-28T06:09:10.991Z,7.74
2019-03-28T06:14:15.736Z,8.20
2019-03-28T06:19:20.581Z,8.26
2019-03-28T06:24:25.333Z,9.05
2019-03-28T06:29:30.070Z,9.52
2019-03-28T06:34:34.807Z,9.68
2019-03-28T06:39:39.764Z,9.22
2019-03-28T06:44:44.497Z,8.70
2019-03-28T06:49:49.135Z,8.41
2019-03-28T06:54:53.776Z,8.40
2019-03-28T06:59:58.337Z,9.54
2019-03-28T07:05:03.955Z,9.43
2019-03-28T07:10:08.624Z,10.16
2019-03-28T07:15:13.383Z,10.64
2019-03-28T07:20:18.515Z,10.48
2019-03-28T07:25:25.432Z,11.37
2019-03-28T07:30:30.356Z,11.12
2019-03-28T07:35:35.206Z,11.07
2019-03-28T07:40:39.785Z,11.06
2019-03-28T07:45:44.585Z,11.54
2019-03-28T07:50:49.174Z,11.34
2019-03-28T07:55:55.599Z,12.20
2019-03-28T08:01:00.246Z,11.77
2019-03-28T08:06:04.887Z,12.72
2019-03-28T08:11:09.635Z,12.21
2019-03-28T08:16:15.913Z,13.08
2019-03-28T08:21:20.652Z,13.89
2019-03-28T08:26:25.401Z,13.47
2019-03-28T08:31:30.041Z,13.79
2019-03-28T08:36:35.711Z,12.91
2019-03-28T08:41:40.438Z,13.42
2019-03-28T08:46:45.188Z,13.87
2019-03-28T08:51:50.091Z,14.76
2019-03-28T08:56:54.777Z,14.24
2019-03-28T09:01:59.522Z,15.33
2019-03-28T09:07:04.272Z,15.34
2019-03-28T09:12:09.003Z,14.91
2019-03-28T09:17:13.754Z,14.27
2019-03-28T09:22:18.496Z,14.62
2019-03-28T09:27:23.139Z,16.20
2019-03-28T09:32:27.981Z,15.19
2019-03-28T09:37:32.725Z,14.83
2019-03-28T09:42:37.479Z,15.41
2019-03-28T09:47:42.231Z,15.42
2019-03-28T09:52:46.955Z,14.94
2019-03-28T09:57:51.700Z,15.76
2019-03-28T10:02:56.466Z,15.36
2019-03-28T10:08:01.097Z,15.78
2019-03-28T10:13:05.724Z,15.41
2019-03-28T10:18:10.282Z,16.12
2019-03-28T10:23:14.919Z,14.75
2019-03-28T10:28:19.490Z,14.91
2019-03-28T10:33:24.689Z,16.53
2019-03-28T10:38:29.750Z,16.47
2019-03-28T10:43:34.488Z,16.58
2019-03-28T10:48:39.240Z,16.95
2019-03-28T10:53:43.978Z,17.14
2019-03-28T10:58:48.733Z,16.94
2019-03-28T11:03:53.374Z,16.29
2019-03-28T11:08:58.988Z,16.62
2019-03-28T11:14:03.877Z,15.18
2019-03-28T11:19:09.641Z,15.69
2019-03-28T11:24:14.209Z,15.81
2019-03-28T11:29:18.934Z,14.79
2019-03-28T11:34:23.669Z,15.39
2019-03-28T11:39:29.335Z,14.54
2019-03-28T11:44:34.085Z,14.31
2019-03-28T11:49:38.819Z,14.84
2019-03-28T11:54:43.565Z,15.31
2019-03-28T11:59:49.330Z,16.03
2019-03-28T12:04:54.073Z,16.10
2019-03-28T12:09:58.714Z,16.59
2019-03-28T12:15:03.558Z,16.81
2019-03-28T12:20:08.450Z,16.92
2019-03-28T12:25:13.251Z,16.29
2019-03-28T12:30:18.250Z,17.05
2019-03-28T12:35:22.996Z,17.32
2019-03-28T12:40:28.022Z,15.71
2019-03-28T12:45:32.836Z,15.18
2019-03-28T12:50:37.898Z,15.33
2019-03-28T12:55:42.639Z,15.56
2019-03-28T13:00:47.381Z,16.05
2019-03-28T13:05:52.224Z,15.72
2019-03-28T13:10:57.069Z,15.12
2019-03-28T13:16:01.725Z,15.49
2019-03-28T13:21:13.342Z,15.71
2019-03-28T13:26:12.730Z,14.90
2019-03-28T13:31:17.694Z,14.60
2019-03-28T13:36:23.291Z,15.03
2019-03-28T13:41:28.087Z,15.30
2019-03-28T13:46:33.039Z,14.93
2019-03-28T13:51:37.777Z,15.48
2019-03-28T13:56:42.778Z,14.40
2019-03-28T14:01:47.742Z,14.90
2019-03-28T14:06:52.525Z,15.46
2019-03-28T14:11:57.270Z,14.95
2019-03-28T14:17:03.043Z,14.91
2019-03-28T14:22:07.882Z,15.19
2019-03-28T14:27:13.034Z,14.85
2019-03-28T14:32:17.772Z,14.98
2019-03-28T14:37:24.173Z,14.95
2019-03-28T14:42:31.253Z,14.71
2019-03-28T14:47:37.511Z,15.33
2019-03-28T14:52:44.186Z,14.70
2019-03-28T14:57:50.585Z,14.56
2019-03-28T15:02:56.963Z,14.24
2019-03-28T15:08:02.245Z,13.85
2019-03-28T15:13:08.331Z,14.32
2019-03-28T15:18:15.296Z,13.77
2019-03-28T15:23:20.956Z,13.48
2019-03-28T15:28:27.711Z,14.05
2019-03-28T15:33:39.771Z,13.99
2019-03-28T15:38:44.420Z,13.87
2019-03-28T15:43:51.627Z,13.32
2019-03-28T15:48:58.422Z,14.00
2019-03-28T15:54:04.797Z,14.30
2019-03-28T15:59:12.576Z,14.31
2019-03-28T16:04:19.602Z,13.93
2019-03-28T16:09:27.486Z,14.70
2019-03-28T16:14:33.506Z,14.81
2019-03-28T16:19:38.096Z,14.33
2019-03-28T16:24:42.881Z,13.82
2019-03-28T16:29:48.556Z,13.23
2019-03-28T16:34:53.401Z,13.40
2019-03-28T16:39:58.135Z,13.04
2019-03-28T16:45:04.101Z,13.21
2019-03-28T16:50:08.860Z,13.27
2019-03-28T16:55:25.881Z,13.41
2019-03-28T17:00:20.467Z,13.12
2019-03-28T17:05:26.873Z,13.39
2019-03-28T17:10:46.160Z,12.98
2019-03-28T17:15:51.167Z,12.87
2019-03-28T17:20:56.172Z,12.73
2019-03-28T17:26:00.898Z,12.69
2019-03-28T17:31:06.571Z,12.94
2019-03-28T17:36:12.324Z,12.89
2019-03-28T17:41:17.074Z,12.35
2019-03-28T17:46:21.810Z,12.49
2019-03-28T17:51:26.494Z,12.55
2019-03-28T17:56:32.539Z,12.15
2019-03-28T18:01:37.274Z,11.83
2019-03-28T18:06:43.673Z,11.64
2019-03-28T18:11:48.500Z,11.21
2019-03-28T18:16:53.258Z,11.13
2019-03-28T18:22:03.686Z,10.85
2019-03-28T18:27:04.365Z,10.53
2019-03-28T18:32:09.313Z,9.94
2019-03-28T18:37:14.158Z,9.95
2019-03-28T18:42:18.917Z,10.12
2019-03-28T18:47:23.859Z,10.03
2019-03-28T18:52:29.098Z,10.37
2019-03-28T18:57:33.865Z,10.62
2019-03-28T19:02:38.691Z,11.18
2019-03-28T19:07:43.656Z,11.01
2019-03-28T19:12:48.386Z,10.88
2019-03-28T19:17:53.047Z,10.22
2019-03-28T19:22:59.436Z,10.54
2019-03-28T19:28:07.250Z,9.63
2019-03-28T19:33:10.326Z,9.65
2019-03-28T19:38:15.169Z,9.06
2019-03-28T19:43:22.096Z,9.36
2019-03-28T19:48:26.499Z,9.47
2019-03-28T19:53:31.132Z,9.33
2019-03-28T19:58:35.895Z,8.63
2019-03-28T20:03:40.725Z,8.71
2019-03-28T20:08:46.702Z,8.83
2019-03-28T20:13:52.266Z,8.68
2019-03-28T20:18:57.106Z,8.74
2019-03-28T20:24:01.877Z,8.43
2019-03-28T20:29:08.868Z,7.98
2019-03-28T20:34:14.924Z,8.31
2019-03-28T20:39:20.684Z,7.27
2019-03-28T20:44:25.529Z,7.18
2019-03-28T20:49:30.281Z,6.99
2019-03-28T20:54:35.015Z,6.85
2019-03-28T20:59:41.385Z,6.72
2019-03-28T21:04:45.930Z,7.19
2019-03-28T21:09:50.575Z,6.94
2019-03-28T21:14:55.319Z,6.63
2019-03-28T21:20:00.402Z,6.97
2019-03-28T21:25:06.816Z,6.44
2019-03-28T21:30:11.480Z,6.18
2019-03-28T21:35:16.140Z,6.31
2019-03-28T21:40:21.205Z,5.92
2019-03-28T21:45:27.097Z,5.85
2019-03-28T21:50:31.793Z,5.97
2019-03-28T21:55:36.541Z,5.71
2019-03-28T22:00:41.090Z,5.08
2019-03-28T22:05:45.717Z,5.10
2019-03-28T22:10:51.370Z,5.24
2019-03-28T22:15:56.119Z,5.15
2019-03-28T22:21:00.865Z,5.22
2019-03-28T22:26:05.708Z,4.81
2019-03-28T22:31:10.452Z,5.20
2019-03-28T22:36:15.192Z,5.35
2019-03-28T22:41:19.837Z,5.48
2019-03-28T22:46:24.577Z,5.63
2019-03-28T22:51:31.586Z,5.85
2019-03-28T22:56:35.602Z,5.07
2019-03-28T23:01:40.852Z,5.55
2019-03-28T23:06:47.187Z,5.21
2019-03-28T23:11:54.500Z,5.47
2019-03-28T23:16:59.997Z,5.45
2019-03-28T23:22:05.254Z,5.31
2019-03-28T23:27:10.914Z,5.56
2019-03-28T23:32:16.618Z,4.68
2019-03-28T23:37:24.950Z,5.01
2019-03-28T23:42:31.279Z,4.98
2019-03-28T23:47:36.849Z,5.22
2019-03-28T23:52:42.858Z,5.07
2019-03-28T23:57:48.487Z,4.84
